Independence, Virginia
Current Conditions -  °F | °C
As of 4:35 PM on Friday 31 Oct 2014 (Local Time) from KGEV Reporting Station
Moderate Rain Moderate Rain  
Wind Chill: 37°   Ceiling: 3300
Heat Index: 43°   Visibility: 10mi
Dew Point: 35°   Wind: 12mph
Humidity: 74%   Direction: 270°W
Pressure: 29.81"   Gusts: 20mph
Location:  36.62°N, 81.15°W
Report Text: KGEV 312035Z AUTO 27010G17KT 10SM RA BKN033 OVC040 06/02 A2981 RMK AO2 T00620018
Loading
Personal Weather Stations






























Interactive Weather Map
Tropical Storm Tracking
New forecast layout! Learn more

10-Day Weather Forecast

Advertisements
Track Severe Weather on mobile